Time;durP1;ratioP1;P1;durP2;ratioP2;P2;SDS_P1;SDS_P2;PMS_P1;PMS_P2;Temp;Humidity;BMP_temperature;BMP_pressure;BME280_temperature;BME280_humidity;BME280_pressure;Samples;Min_cycle;Max_cycle;Signal;HPM_P1;HPM_P2
2022/03/14 00:02:19;;;;;;;55.48;25.77;;;;;;;2.08;35.89;101273.30;2027094;87;30989;-71
2022/03/14 00:05:22;;;;;;;51.90;26.27;;;;;;;2.03;35.99;101270.65;2028987;86;34218;-62
2022/03/14 00:08:24;;;;;;;52.27;26.37;;;;;;;2.00;36.14;101268.42;2027312;87;30439;-61
2022/03/14 00:11:27;;;;;;;55.80;26.87;;;;;;;1.95;36.15;101279.89;2032812;87;27693;-62
2022/03/14 00:14:29;;;;;;;55.95;28.15;;;;;;;1.93;36.34;101282.06;2033860;87;29862;-64
2022/03/14 00:17:31;;;;;;;56.20;26.25;;;;;;;1.89;36.32;101284.28;2034908;87;31999;-61
2022/03/14 00:20:34;;;;;;;58.90;28.35;;;;;;;1.86;36.52;101287.78;2033351;87;34188;-59
2022/03/14 00:23:36;;;;;;;56.77;30.27;;;;;;;1.79;36.50;101281.59;2033217;87;30165;-59
2022/03/14 00:26:39;;;;;;;54.40;28.83;;;;;;;1.75;36.64;101281.59;2033787;86;28265;-59
2022/03/14 00:29:41;;;;;;;57.38;28.17;;;;;;;1.67;37.15;101277.61;2033629;87;28904;-60
2022/03/14 00:32:44;;;;;;;54.93;27.80;;;;;;;1.58;37.30;101281.11;2033636;87;32227;-60
2022/03/14 00:35:46;;;;;;;53.15;27.10;;;;;;;1.51;37.35;101280.20;2054722;86;32977;-60
2022/03/14 00:38:48;;;;;;;55.23;28.55;;;;;;;1.46;37.32;101283.26;2039887;85;29621;-60
2022/03/14 00:41:50;;;;;;;54.03;28.42;;;;;;;1.41;37.71;101283.66;2055705;84;28251;-60
2022/03/14 00:44:55;;;;;;;57.73;29.05;;;;;;;1.36;37.60;101275.73;2105560;84;29874;-60
2022/03/14 00:47:56;;;;;;;59.23;30.23;;;;;;;1.29;37.95;101274.38;2106484;84;31076;-58
2022/03/14 00:50:59;;;;;;;61.92;30.55;;;;;;;1.26;38.07;101285.82;2072959;84;34106;-59
2022/03/14 00:54:05;;;;;;;68.47;31.93;;;;;;;1.20;38.10;101294.59;2070949;86;29419;-62
2022/03/14 00:57:07;;;;;;;64.95;30.82;;;;;;;1.13;38.38;101296.74;2070719;86;27689;-59
2022/03/14 01:00:12;;;;;;;66.12;32.78;;;;;;;1.02;38.56;101295.81;2070719;85;29051;-60
2022/03/14 01:03:14;;;;;;;83.30;36.00;;;;;;;0.95;38.59;101297.53;2071241;86;31197;-59
2022/03/14 01:06:16;;;;;;;75.50;35.40;;;;;;;0.88;38.69;101297.03;2066409;86;33710;-58
2022/03/14 01:09:19;;;;;;;71.95;34.13;;;;;;;0.79;38.92;101293.03;2033561;87;30701;-60
2022/03/14 01:12:20;;;;;;;73.10;35.58;;;;;;;0.68;39.06;101304.36;2035349;86;28248;-59
2022/03/14 01:15:22;;;;;;;80.35;36.60;;;;;;;0.58;39.22;101295.50;2070768;85;29880;-58
2022/03/14 01:18:25;;;;;;;79.10;36.75;;;;;;;0.48;39.38;101300.27;2070631;85;32235;-59
2022/03/14 01:21:30;;;;;;;76.25;34.73;;;;;;;0.37;39.57;101305.44;2070736;86;33901;-61
2022/03/14 01:24:31;;;;;;;70.37;32.88;;;;;;;0.25;39.83;101302.25;2071125;85;29343;-80
2022/03/14 01:27:34;;;;;;;75.30;36.95;;;;;;;0.18;40.02;101302.18;2070208;85;28323;-78
2022/03/14 01:30:37;;;;;;;86.92;39.38;;;;;;;0.09;40.19;101302.56;2070936;85;29835;-65
2022/03/14 01:33:39;;;;;;;80.75;36.25;;;;;;;-0.01;40.39;101304.66;2070153;85;30899;-78
2022/03/14 01:36:41;;;;;;;73.70;36.20;;;;;;;-0.11;40.49;101305.00;2068809;85;33024;-78
2022/03/14 01:39:43;;;;;;;74.07;36.35;;;;;;;-0.21;40.83;101305.33;2070072;86;29762;-78
2022/03/14 01:42:45;;;;;;;70.32;35.17;;;;;;;-0.27;40.91;101300.43;2070560;86;27759;-78
2022/03/14 01:45:47;;;;;;;79.10;34.92;;;;;;;-0.34;41.18;101304.75;2070788;85;29914;-83
2022/03/14 01:48:49;;;;;;;70.10;35.13;;;;;;;-0.43;41.23;101305.94;2071009;85;32213;-79
2022/03/14 01:51:58;;;;;;;74.40;35.65;;;;;;;-0.54;41.64;101309.33;2070937;86;33545;-67
2022/03/14 01:54:56;;;;;;;70.65;34.58;;;;;;;-0.59;41.90;101315.41;2070660;85;29800;-81
2022/03/14 01:57:58;;;;;;;71.12;35.33;;;;;;;-0.67;41.82;101314.86;2071072;85;27733;-82
2022/03/14 02:01:00;;;;;;;62.78;31.85;;;;;;;-0.71;42.24;101313.05;2055174;86;30135;-73
2022/03/14 02:04:02;;;;;;;73.87;33.67;;;;;;;-0.76;42.44;101314.75;2069061;85;32361;-80
2022/03/14 02:07:04;;;;;;;81.90;35.90;;;;;;;-0.79;42.54;101311.63;2036709;87;34236;-69
2022/03/14 02:10:08;;;;;;;70.83;33.63;;;;;;;-0.82;42.65;101313.34;2038741;86;30192;-76
2022/03/14 02:13:11;;;;;;;70.97;35.80;;;;;;;-0.86;42.99;101312.43;2046409;86;27543;-61
2022/03/14 02:16:13;;;;;;;77.50;35.30;;;;;;;-0.88;43.30;101311.52;2046543;86;28781;-62
2022/03/14 02:19:15;;;;;;;78.12;36.23;;;;;;;-0.88;43.35;101316.78;2046656;86;31407;-60
2022/03/14 02:22:18;;;;;;;73.22;35.63;;;;;;;-0.89;43.64;101312.79;2067425;85;33120;-65
2022/03/14 02:25:20;;;;;;;81.67;37.63;;;;;;;-0.95;43.60;101314.50;2079977;85;30476;-65
2022/03/14 02:28:27;;;;;;;72.30;35.38;;;;;;;-0.96;43.76;101312.73;2080918;85;27669;-64
2022/03/14 02:31:26;;;;;;;81.03;37.50;;;;;;;-0.96;44.17;101315.36;2080222;85;30021;-60
2022/03/14 02:34:28;;;;;;;77.60;38.78;;;;;;;-0.95;44.21;101313.19;2078169;85;32054;-63
2022/03/14 02:37:31;;;;;;;76.97;37.00;;;;;;;-0.93;44.45;101316.72;2080262;85;34140;-60
2022/03/14 02:40:33;;;;;;;75.87;35.90;;;;;;;-0.92;44.34;101313.64;2080330;85;30356;-68
2022/03/14 02:43:35;;;;;;;79.10;35.60;;;;;;;-0.93;44.47;101312.77;2080374;85;27693;-59
2022/03/14 02:46:38;;;;;;;79.40;37.13;;;;;;;-0.95;44.73;101317.54;2080606;85;29861;-59
2022/03/14 02:49:41;;;;;;;77.95;38.15;;;;;;;-0.97;44.57;101316.62;2080691;85;31860;-59
2022/03/14 02:52:43;;;;;;;78.85;37.33;;;;;;;-1.02;44.68;101324.46;2080239;85;33776;-60
2022/03/14 02:55:44;;;;;;;81.00;36.45;;;;;;;-1.06;44.90;101321.33;2080918;85;30724;-58
2022/03/14 02:58:51;;;;;;;82.97;38.75;;;;;;;-1.11;44.97;101325.20;2080822;85;27716;-62
2022/03/14 03:01:50;;;;;;;73.15;37.15;;;;;;;-1.14;45.07;101319.03;2080189;85;28562;-60
2022/03/14 03:04:53;;;;;;;80.38;37.50;;;;;;;-1.19;45.43;101310.17;2078102;85;31020;-64
2022/03/14 03:07:59;;;;;;;75.40;34.88;;;;;;;-1.20;45.81;101328.13;2080551;85;34151;-62
2022/03/14 03:10:59;;;;;;;79.27;36.45;;;;;;;-1.24;45.69;101322.81;2080202;85;29722;-60
2022/03/14 03:14:01;;;;;;;74.47;35.73;;;;;;;-1.24;46.04;101318.00;2080524;85;27611;-67
2022/03/14 03:17:04;;;;;;;78.52;35.20;;;;;;;-1.24;46.46;101321.94;2081084;85;29027;-65
2022/03/14 03:20:09;;;;;;;76.30;35.68;;;;;;;-1.20;46.71;101322.45;2080595;85;31867;-64
2022/03/14 03:23:11;;;;;;;78.60;36.93;;;;;;;-1.16;46.42;101329.95;2080788;85;32960;-60
2022/03/14 03:26:13;;;;;;;77.27;35.90;;;;;;;-1.13;46.65;101332.19;2080566;85;29862;-60
2022/03/14 03:29:15;;;;;;;82.22;37.75;;;;;;;-1.10;46.73;101335.31;2080579;85;27671;-60
2022/03/14 03:32:17;;;;;;;78.15;37.67;;;;;;;-1.07;46.90;101339.27;2080554;85;29472;-61
2022/03/14 03:35:19;;;;;;;75.40;35.00;;;;;;;-1.04;46.61;101346.34;2077831;85;31914;-61
2022/03/14 03:38:21;;;;;;;79.07;36.95;;;;;;;-1.02;46.89;101349.89;2080507;85;33349;-74
2022/03/14 03:41:23;;;;;;;69.00;34.58;;;;;;;-1.01;46.68;101355.61;2080275;85;30552;-65
2022/03/14 03:44:25;;;;;;;74.87;36.35;;;;;;;-1.03;46.69;101354.25;2080475;85;27730;-72
2022/03/14 03:47:27;;;;;;;76.22;36.90;;;;;;;-1.04;46.76;101357.73;2080570;85;29209;-62
2022/03/14 03:50:29;;;;;;;71.82;35.50;;;;;;;-1.05;46.87;101353.78;2080220;85;31901;-64
2022/03/14 03:53:31;;;;;;;71.37;36.77;;;;;;;-1.05;47.36;101358.59;2080239;85;34307;-60
2022/03/14 03:56:34;;;;;;;75.57;36.48;;;;;;;-1.08;47.02;101356.81;2080277;85;30188;-65
2022/03/14 03:59:35;;;;;;;76.55;36.90;;;;;;;-1.08;47.23;101354.63;2080674;85;27686;-67
2022/03/14 04:02:39;;;;;;;70.25;34.63;;;;;;;-1.11;47.23;101355.45;2080640;85;28616;-61
2022/03/14 04:05:41;;;;;;;74.72;36.40;;;;;;;-1.12;47.40;101356.30;2078014;85;31017;-70
2022/03/14 04:08:45;;;;;;;86.15;39.20;;;;;;;-1.12;47.41;101358.94;2073982;85;33926;-71
2022/03/14 04:11:47;;;;;;;86.40;41.40;;;;;;;-1.13;47.36;101367.68;2048683;86;29499;-60
2022/03/14 04:14:49;;;;;;;82.37;38.83;;;;;;;-1.18;47.40;101366.75;2058964;85;27740;-71
2022/03/14 04:17:54;;;;;;;80.60;36.85;;;;;;;-1.24;47.44;101362.25;2063484;85;29373;-69
2022/03/14 04:20:55;;;;;;;124.02;54.45;;;;;;;-1.27;47.53;101364.86;2064242;85;31766;-69
2022/03/14 04:23:57;;;;;;;104.92;53.58;;;;;;;-1.30;47.54;101362.58;2064497;86;32913;-73
2022/03/14 04:26:59;;;;;;;78.22;39.00;;;;;;;-1.29;47.51;101363.94;2058099;86;30479;-60
2022/03/14 04:30:01;;;;;;;83.97;40.33;;;;;;;-1.29;47.74;101365.66;2064584;85;27712;-62
2022/03/14 04:33:03;;;;;;;74.55;38.33;;;;;;;-1.30;47.85;101362.58;2064394;85;29623;-61
2022/03/14 04:36:06;;;;;;;90.92;41.15;;;;;;;-1.35;47.87;101369.53;2064547;86;31590;-65
2022/03/14 04:39:08;;;;;;;86.90;39.38;;;;;;;-1.40;47.97;101366.80;2054485;85;33615;-63
2022/03/14 04:42:10;;;;;;;82.85;40.98;;;;;;;-1.46;48.16;101362.77;2064428;86;29547;-70
2022/03/14 04:45:14;;;;;;;82.53;39.98;;;;;;;-1.48;48.10;101372.37;2064555;85;27737;-64
2022/03/14 04:48:17;;;;;;;83.55;39.53;;;;;;;-1.51;48.24;101373.63;2064590;85;29053;-72
2022/03/14 04:51:20;;;;;;;91.67;43.65;;;;;;;-1.57;48.41;101379.22;2064655;85;32195;-63
2022/03/14 04:54:22;;;;;;;103.90;44.03;;;;;;;-1.64;48.39;101386.95;2064538;85;33379;-69
2022/03/14 04:57:24;;;;;;;94.32;43.13;;;;;;;-1.70;48.56;101391.68;2064679;86;29711;-71
2022/03/14 05:00:28;;;;;;;101.18;46.63;;;;;;;-1.78;48.75;101395.48;2064273;85;27732;-63
2022/03/14 05:03:29;;;;;;;97.45;44.27;;;;;;;-1.83;48.82;101406.34;2064290;86;28676;-65
2022/03/14 05:06:35;;;;;;;105.25;47.73;;;;;;;-1.91;49.01;101411.45;2064089;86;31466;-58
2022/03/14 05:09:37;;;;;;;122.33;57.70;;;;;;;-1.96;48.95;101414.41;2062283;85;32842;-63
2022/03/14 05:12:39;;;;;;;118.22;51.88;;;;;;;-2.01;49.32;101403.81;2064477;85;30502;-63
2022/03/14 05:15:41;;;;;;;107.92;51.08;;;;;;;-2.04;49.81;101405.06;2064837;86;27666;-59
2022/03/14 05:18:43;;;;;;;98.20;48.50;;;;;;;-2.03;49.95;101403.30;2064724;85;29211;-70
2022/03/14 05:21:45;;;;;;;94.35;45.00;;;;;;;-2.03;49.76;101411.18;2064489;85;32228;-68
2022/03/14 05:24:47;;;;;;;98.42;44.40;;;;;;;-2.06;49.81;101413.73;2064412;85;34311;-67
2022/03/14 05:27:52;;;;;;;97.75;43.73;;;;;;;-2.07;49.91;101417.25;2064725;85;30405;-61
2022/03/14 05:30:54;;;;;;;102.38;44.13;;;;;;;-2.09;49.98;101417.20;2064864;85;27662;-60
2022/03/14 05:33:56;;;;;;;91.30;43.30;;;;;;;-2.08;50.00;101422.04;2064980;85;29375;-62
2022/03/14 05:36:59;;;;;;;97.02;42.80;;;;;;;-2.10;50.14;101431.17;2064666;86;31440;-58
2022/03/14 05:40:01;;;;;;;99.42;42.00;;;;;;;-2.10;50.22;101435.11;2061729;85;33029;-65
2022/03/14 05:43:08;;;;;;;95.75;42.70;;;;;;;-2.09;50.30;101438.64;2064537;85;30422;-63
2022/03/14 05:46:10;;;;;;;86.85;41.40;;;;;;;-2.07;50.32;101444.81;2064742;85;28115;-61
2022/03/14 05:49:12;;;;;;;91.12;40.98;;;;;;;-2.07;50.40;101443.50;2064411;85;29885;-63
2022/03/14 05:52:14;;;;;;;92.05;41.33;;;;;;;-2.03;50.61;101448.84;2064720;86;31054;-72
2022/03/14 05:55:16;;;;;;;100.75;44.60;;;;;;;-2.01;50.76;101447.55;2064418;85;34199;-72
2022/03/14 05:58:18;;;;;;;92.22;44.77;;;;;;;-1.95;50.65;101449.41;2064417;85;30554;-71
2022/03/14 06:01:22;;;;;;;103.78;45.30;;;;;;;-1.89;50.86;101454.80;2064494;85;27646;-72
2022/03/14 06:04:23;;;;;;;106.12;46.30;;;;;;;-1.81;50.99;101460.20;2067746;85;29528;-72
2022/03/14 06:07:25;;;;;;;148.38;59.80;;;;;;;-1.76;50.91;101458.56;2028633;87;32289;-71
2022/03/14 06:10:27;;;;;;;134.75;56.75;;;;;;;-1.67;51.11;101460.05;2056989;86;33495;-72
2022/03/14 06:13:29;;;;;;;131.63;54.20;;;;;;;-1.56;51.06;101462.45;2069011;85;29847;-71
2022/03/14 06:16:32;;;;;;;135.30;56.83;;;;;;;-1.43;51.11;101466.64;2071000;85;27604;-71
2022/03/14 06:19:34;;;;;;;126.25;59.58;;;;;;;-1.27;51.20;101473.05;2070905;85;28847;-73
2022/03/14 06:22:39;;;;;;;102.75;48.75;;;;;;;-1.05;51.07;101468.18;2070936;86;31401;-65
2022/03/14 06:25:41;;;;;;;202.43;75.35;;;;;;;-0.71;51.00;101465.66;2071168;85;32806;-71
2022/03/14 06:28:43;;;;;;;179.07;68.67;;;;;;;-0.29;50.62;101457.51;2070686;85;30573;-65
2022/03/14 06:31:45;;;;;;;122.02;52.53;;;;;;;0.14;50.27;101463.33;2071087;85;27625;-63
2022/03/14 06:34:47;;;;;;;80.85;36.88;;;;;;;0.57;49.92;101451.97;2070817;86;29491;-65
2022/03/14 06:37:50;;;;;;;75.60;35.00;;;;;;;1.05;49.32;101456.34;2069743;85;32282;-67
2022/03/14 06:40:56;;;;;;;61.28;30.15;;;;;;;1.55;48.56;101445.28;2034336;85;33767;-67
2022/03/14 06:43:57;;;;;;;57.90;29.10;;;;;;;2.60;47.09;101453.62;2033423;87;30236;-66
2022/03/14 06:46:59;;;;;;;63.73;30.55;;;;;;;2.60;47.09;101453.62;2067650;86;27818;-65
2022/03/14 06:50:03;;;;;;;56.18;29.20;;;;;;;3.15;46.70;101455.42;2090987;84;29437;-70
2022/03/14 06:53:05;;;;;;;55.73;28.57;;;;;;;3.64;46.05;101451.84;2105545;84;31025;-68
2022/03/14 06:56:07;;;;;;;56.37;26.30;;;;;;;4.16;45.60;101458.30;2106059;84;34003;-61
2022/03/14 06:59:10;;;;;;;58.92;26.27;;;;;;;4.64;44.45;101455.41;2106433;84;30457;-71
2022/03/14 07:02:12;;;;;;;48.42;23.62;;;;;;;5.14;43.36;101452.82;2106216;84;27643;-68
2022/03/14 07:05:20;;;;;;;49.42;25.12;;;;;;;5.71;42.14;101452.70;2106200;84;30145;-65
2022/03/14 07:08:22;;;;;;;49.18;24.92;;;;;;;6.22;42.13;101445.50;2093227;84;31073;-70
2022/03/14 07:11:24;;;;;;;45.83;24.05;;;;;;;6.77;41.43;101445.64;2070365;85;34316;-68
2022/03/14 07:14:26;;;;;;;51.15;24.77;;;;;;;7.28;40.63;101442.59;2064360;85;30611;-64
2022/03/14 07:17:28;;;;;;;45.00;23.85;;;;;;;7.74;39.36;101444.41;2064514;85;27690;-66
2022/03/14 07:20:30;;;;;;;51.88;22.70;;;;;;;8.14;39.39;101450.73;2064407;85;29537;-65
2022/03/14 07:23:31;;;;;;;44.55;22.87;;;;;;;8.57;38.74;101448.05;2064601;85;32213;-65
2022/03/14 07:26:34;;;;;;;44.10;22.87;;;;;;;8.97;38.92;101452.00;2064253;85;34258;-62
2022/03/14 07:29:36;;;;;;;42.15;22.07;;;;;;;9.35;38.18;101447.07;2064629;85;29486;-63
2022/03/14 07:32:38;;;;;;;35.30;21.87;;;;;;;9.74;37.65;101449.61;2059300;85;27734;-62
2022/03/14 07:35:40;;;;;;;39.83;21.95;;;;;;;10.16;36.99;101452.44;2028322;87;29576;-61
2022/03/14 07:38:42;;;;;;;43.02;21.20;;;;;;;10.58;35.25;101440.51;2045489;86;32291;-65
2022/03/14 07:41:45;;;;;;;40.52;19.62;;;;;;;10.97;35.90;101437.94;2026910;87;34210;-60
2022/03/14 07:44:48;;;;;;;35.75;19.80;;;;;;;11.29;34.49;101432.80;2027637;87;29962;-66
2022/03/14 07:47:51;;;;;;;34.20;18.15;;;;;;;11.61;34.88;101436.65;2027791;87;27569;-66
2022/03/14 07:50:54;;;;;;;30.12;17.70;;;;;;;11.88;33.80;101437.91;2027719;87;28762;-69
2022/03/14 07:53:56;;;;;;;32.65;17.52;;;;;;;12.07;31.15;101440.36;2027186;87;31041;-72
2022/03/14 07:56:59;;;;;;;30.20;17.60;;;;;;;12.25;32.53;101437.91;2027100;87;34186;-68
2022/03/14 08:00:03;;;;;;;35.48;17.50;;;;;;;12.55;32.54;101445.25;2027074;87;29448;-71
2022/03/14 08:03:05;;;;;;;41.00;17.53;;;;;;;12.86;31.89;101444.47;2063306;86;28405;-70
2022/03/14 08:06:07;;;;;;;30.57;16.48;;;;;;;13.14;31.12;101440.17;2064006;85;29945;-61
2022/03/14 08:09:10;;;;;;;36.42;18.65;;;;;;;13.29;30.99;101441.35;2061116;85;30585;-68
2022/03/14 08:12:12;;;;;;;30.25;17.17;;;;;;;13.45;29.78;101444.27;2064157;85;34325;-70
2022/03/14 08:15:30;;;;;;;30.62;17.10;;;;;;;13.58;29.54;101447.77;2070075;85;30520;-69
2022/03/14 08:18:31;;;;;;;32.28;17.77;;;;;;;13.80;29.72;101437.81;2064691;85;27686;-67
2022/03/14 08:21:33;;;;;;;34.23;17.90;;;;;;;14.11;28.72;101443.63;2064520;86;29836;-66
2022/03/14 08:24:36;;;;;;;29.92;15.72;;;;;;;14.19;27.84;101433.35;2064214;85;32301;-69
2022/03/14 08:27:38;;;;;;;33.15;15.90;;;;;;;14.22;28.12;101434.56;2064124;85;34186;-66
2022/03/14 08:30:42;;;;;;;25.90;16.23;;;;;;;14.24;27.81;101435.37;2064505;85;29403;-64
2022/03/14 08:33:45;;;;;;;25.08;15.30;;;;;;;14.21;26.72;101436.85;2064549;85;27828;-71
2022/03/14 08:36:47;;;;;;;30.10;14.93;;;;;;;14.10;27.65;101438.70;2064338;85;29876;-65
2022/03/14 08:39:49;;;;;;;27.52;14.83;;;;;;;14.03;26.96;101433.20;2061842;85;31020;-68
2022/03/14 08:42:54;;;;;;;28.47;14.47;;;;;;;13.81;26.67;101437.35;2033467;86;32899;-64
2022/03/14 08:45:56;;;;;;;33.20;14.98;;;;;;;13.54;26.86;101432.23;2049681;86;29330;-64
2022/03/14 08:48:58;;;;;;;37.53;14.93;;;;;;;13.27;26.61;101435.61;2064886;85;27741;-68
2022/03/14 08:52:01;;;;;;;32.15;13.43;;;;;;;13.04;26.32;101434.30;2064285;85;29139;-65
2022/03/14 08:55:05;;;;;;;25.68;13.60;;;;;;;12.80;25.72;101429.95;2064801;85;31857;-66
2022/03/14 08:58:07;;;;;;;21.82;12.65;;;;;;;12.63;26.20;101431.51;2064744;86;32967;-69
2022/03/14 09:01:10;;;;;;;22.67;11.60;;;;;;;12.58;25.35;101430.80;2064548;86;30071;-63
2022/03/14 09:04:12;;;;;;;18.90;12.90;;;;;;;12.46;26.26;101427.68;2064829;85;27668;-68
2022/03/14 09:07:28;;;;;;;20.35;12.47;;;;;;;12.44;25.59;101425.97;2064405;85;29935;-71
2022/03/14 09:10:31;;;;;;;18.92;11.12;;;;;;;12.40;26.20;101413.61;2062827;86;31149;-67
2022/03/14 09:13:34;;;;;;;19.67;11.12;;;;;;;12.38;25.97;101415.48;2072664;85;33795;-66
2022/03/14 09:16:37;;;;;;;17.40;10.53;;;;;;;12.31;25.27;101419.73;2080093;85;30390;-71
2022/03/14 09:19:40;;;;;;;16.67;11.08;;;;;;;12.27;25.11;101420.78;2080678;85;27645;-66
2022/03/14 09:22:45;;;;;;;19.55;11.20;;;;;;;12.30;25.73;101419.81;2080607;85;29561;-68
2022/03/14 09:25:49;;;;;;;;;;;;;;;12.24;25.02;101416.90;2083319;85;31018;-69
2022/03/14 09:28:52;;;;;;;17.62;10.55;;;;;;;12.27;25.21;101415.89;2080462;84;33132;-61
2022/03/14 09:31:55;;;;;;;16.45;9.60;;;;;;;12.24;25.31;101413.31;2080454;85;30203;-69
2022/03/14 09:34:59;;;;;;;21.12;10.85;;;;;;;12.33;25.00;101411.60;2081372;85;27669;-66
2022/03/14 09:38:04;;;;;;;15.53;9.25;;;;;;;12.35;25.13;101412.91;2078565;85;28172;-64
2022/03/14 09:41:08;;;;;;;12.30;8.95;;;;;;;12.43;25.01;101408.09;2081511;85;32260;-62
2022/03/14 09:44:11;;;;;;;15.18;9.08;;;;;;;12.52;24.38;101406.39;2081374;85;32974;-65
2022/03/14 09:47:13;;;;;;;14.13;9.18;;;;;;;12.50;24.65;101410.06;2080515;85;30195;-67
2022/03/14 09:50:23;;;;;;;23.92;9.53;;;;;;;12.49;23.69;101401.14;2080736;85;27676;-62
2022/03/14 09:53:26;;;;;;;14.33;8.85;;;;;;;12.50;23.58;101397.97;2079226;85;30090;-61
2022/03/14 09:56:28;;;;;;;14.83;9.45;;;;;;;12.46;23.20;101403.94;2080557;85;31274;-61
2022/03/14 09:59:32;;;;;;;14.75;9.53;;;;;;;12.45;23.60;101396.36;2080682;85;33391;-60
2022/03/14 10:02:39;;;;;;;15.90;9.53;;;;;;;12.51;23.98;101400.61;2078484;85;30150;-59
2022/03/14 10:05:44;;;;;;;11.78;8.38;;;;;;;12.54;22.91;101398.26;2080765;85;27701;-61
2022/03/14 10:08:45;;;;;;;17.70;10.43;;;;;;;12.51;23.57;101395.23;2080581;85;28911;-61
2022/03/14 10:11:48;;;;;;;14.05;9.73;;;;;;;12.60;23.55;101398.02;2080340;85;32296;-61
2022/03/14 10:14:51;;;;;;;18.87;10.03;;;;;;;12.60;22.74;101382.75;2080327;85;33846;-60
2022/03/14 10:17:55;;;;;;;26.00;9.75;;;;;;;12.54;23.18;101381.67;2095914;84;29453;-60
2022/03/14 10:21:05;;;;;;;19.90;10.10;;;;;;;12.54;22.96;101385.70;2090390;84;27664;-60
2022/03/14 10:24:10;;;;;;;12.15;8.73;;;;;;;12.49;23.08;101377.44;2074029;85;29611;-60
2022/03/14 10:27:15;;;;;;;12.85;9.53;;;;;;;12.54;23.83;101380.78;2041056;86;31036;-64
2022/03/14 10:30:31;;;;;;;15.27;9.90;;;;;;;12.63;23.16;101381.77;2030098;85;34043;-60
2022/03/14 10:33:34;;;;;;;23.45;9.55;;;;;;;12.67;23.35;101385.20;2042273;85;29498;-61
2022/03/14 10:36:49;;;;;;;17.62;10.18;;;;;;;12.63;22.58;101376.39;2043894;85;27737;-60
2022/03/14 10:40:00;;;;;;;19.67;10.20;;;;;;;12.52;21.75;101388.03;2075121;85;28135;-61
2022/03/14 10:43:04;;;;;;;18.30;9.90;;;;;;;12.42;22.78;101388.87;2074153;85;32326;-60
2022/03/14 10:46:05;;;;;;;13.32;9.43;;;;;;;12.44;22.92;101398.64;2062470;85;33847;-61
2022/03/14 10:49:10;;;;;;;16.02;9.73;;;;;;;12.41;22.32;101396.07;2074434;84;30671;-64
2022/03/14 10:52:14;;;;;;;14.65;9.13;;;;;;;12.43;22.63;101398.69;2075063;84;27710;-61
2022/03/14 10:55:16;;;;;;;15.98;9.40;;;;;;;12.41;21.75;101394.72;2074908;85;28621;-61
2022/03/14 10:58:22;;;;;;;13.95;8.30;;;;;;;12.43;22.16;101391.52;2080148;85;32263;-60
2022/03/14 11:01:24;;;;;;;19.12;9.08;;;;;;;12.40;21.69;101392.97;2060379;85;32976;-61
2022/03/14 11:04:29;;;;;;;13.62;9.30;;;;;;;12.36;22.24;101384.62;2027725;87;30500;-61
2022/03/14 11:07:32;;;;;;;16.50;9.53;;;;;;;12.38;22.20;101374.69;1993672;88;27758;-68
2022/03/14 11:10:38;;;;;;;18.73;10.05;;;;;;;12.36;22.29;101373.87;2057128;86;29405;-71
2022/03/14 11:13:43;;;;;;;15.63;9.55;;;;;;;12.34;22.26;101379.77;2040159;87;30973;-61
2022/03/14 11:16:46;;;;;;;18.40;9.93;;;;;;;12.38;22.20;101373.34;2033394;87;33045;-62
2022/03/14 11:19:50;;;;;;;16.30;10.85;;;;;;;12.41;22.92;101377.25;2033347;87;29827;-63
2022/03/14 11:22:52;;;;;;;16.48;9.75;;;;;;;12.43;21.81;101381.22;2033815;87;27642;-63
2022/03/14 11:25:56;;;;;;;13.70;9.88;;;;;;;12.40;22.35;101383.56;2009212;87;29901;-62
2022/03/14 11:28:58;;;;;;;15.23;9.80;;;;;;;12.41;22.82;101375.91;2043113;86;32232;-64
2022/03/14 11:32:02;;;;;;;17.60;9.68;;;;;;;12.48;23.06;101371.65;2070923;85;32974;-61
2022/03/14 11:35:07;;;;;;;11.90;8.73;;;;;;;12.53;22.84;101373.66;2070382;85;29932;-73
2022/03/14 11:38:09;;;;;;;16.40;9.25;;;;;;;12.59;22.98;101367.56;2069784;84;27776;-66
2022/03/14 11:41:11;;;;;;;10.08;8.18;;;;;;;12.68;23.05;101369.48;2059128;85;29876;-72
2022/03/14 11:44:13;;;;;;;11.75;8.88;;;;;;;12.73;22.75;101362.97;2035330;86;32208;-69
2022/03/14 11:47:20;;;;;;;15.20;9.23;;;;;;;12.81;22.77;101364.48;2034979;86;33371;-78
2022/03/14 11:50:22;;;;;;;10.88;7.75;;;;;;;12.85;23.04;101362.04;2035454;87;30134;-61
2022/03/14 11:53:28;;;;;;;13.13;7.87;;;;;;;12.89;22.34;101352.45;2035623;86;27730;-62
2022/03/14 11:56:38;;;;;;;16.05;7.58;;;;;;;12.92;22.10;101351.44;2039110;86;28656;-65
2022/03/14 11:59:40;;;;;;;16.45;9.08;;;;;;;12.92;22.20;101352.30;2070135;85;31855;-62
2022/03/14 12:02:42;;;;;;;16.05;8.63;;;;;;;12.97;22.56;101354.82;2033428;87;34249;-64
2022/03/14 12:05:47;;;;;;;14.35;8.23;;;;;;;13.03;22.88;101356.37;2062851;86;30576;-68
2022/03/14 12:08:53;;;;;;;11.55;8.55;;;;;;;13.07;22.31;101343.20;2070791;86;27766;-68
2022/03/14 12:11:57;;;;;;;16.15;8.73;;;;;;;12.99;22.71;101329.19;2070933;85;28644;-67
2022/03/14 12:15:01;;;;;;;13.35;8.10;;;;;;;13.13;22.17;101341.56;2066466;85;32541;-62
2022/03/14 12:18:27;;;;;;;11.18;7.78;;;;;;;13.15;22.38;101343.72;2064751;85;33003;-62
2022/03/14 12:21:46;;;;;;;13.03;8.40;;;;;;;13.17;22.65;101341.84;2064202;85;30612;-61
2022/03/14 12:24:49;;;;;;;18.07;8.73;;;;;;;13.21;22.87;101334.50;2064470;85;27610;-62
2022/03/14 12:27:51;;;;;;;13.83;9.03;;;;;;;13.32;22.99;101335.37;2064245;85;29540;-62
2022/03/14 12:31:13;;;;;;;15.00;9.03;;;;;;;13.41;23.14;101333.63;2064329;86;32393;-61
2022/03/14 12:34:16;;;;;;;13.22;9.08;;;;;;;13.50;23.26;101335.93;2055407;85;33345;-61
2022/03/14 12:37:27;;;;;;;19.75;10.20;;;;;;;13.60;23.44;101328.31;2027065;87;30506;-62
2022/03/14 12:40:37;;;;;;;19.27;10.18;;;;;;;13.65;23.46;101338.37;1988104;89;27723;-61
2022/03/14 12:43:41;;;;;;;17.70;9.53;;;;;;;13.69;23.63;101344.52;2047540;86;29556;-65
2022/03/14 12:46:47;;;;;;;19.98;10.70;;;;;;;13.73;23.84;101337.16;2027105;87;31507;-63
2022/03/14 12:49:49;;;;;;;18.15;10.08;;;;;;;13.75;24.00;101342.87;2026263;87;32977;-61
2022/03/14 12:53:01;;;;;;;17.37;10.45;;;;;;;13.79;23.92;101351.22;2035342;86;29432;-63
2022/03/14 12:56:20;;;;;;;17.80;9.83;;;;;;;13.80;24.19;101346.23;2063975;85;28204;-74
2022/03/14 12:59:27;;;;;;;17.50;10.13;;;;;;;13.82;24.19;101348.39;2030613;87;28896;-63
2022/03/14 13:02:29;;;;;;;17.87;9.83;;;;;;;13.81;24.09;101347.12;2013637;87;32468;-63
2022/03/14 13:05:32;;;;;;;16.73;10.58;;;;;;;13.79;24.25;101337.75;2029517;86;34179;-63
2022/03/14 13:08:44;;;;;;;15.08;10.40;;;;;;;13.77;24.29;101342.81;2026874;87;30599;-61
2022/03/14 13:11:47;;;;;;;14.40;10.40;;;;;;;13.77;24.28;101349.06;2027037;87;27737;-62
2022/03/14 13:14:50;;;;;;;14.20;9.85;;;;;;;13.76;24.16;101348.66;2027079;87;29485;-63
2022/03/14 13:17:53;;;;;;;13.53;10.23;;;;;;;13.73;24.09;101347.48;2026667;87;32428;-63
2022/03/14 13:20:55;;;;;;;24.63;10.30;;;;;;;13.71;23.87;101352.06;2026767;87;33249;-62
2022/03/14 13:24:06;;;;;;;19.80;10.72;;;;;;;13.68;24.06;101348.16;2026769;87;30266;-60
2022/03/14 13:27:08;;;;;;;15.88;10.65;;;;;;;13.63;24.06;101345.67;2026967;87;27854;-66
2022/03/14 13:30:12;;;;;;;15.95;11.00;;;;;;;13.61;23.99;101349.36;2026887;87;28684;-65
2022/03/14 13:33:23;;;;;;;18.55;10.60;;;;;;;13.58;24.17;101342.77;2027529;86;31044;-70
2022/03/14 13:36:25;;;;;;;26.80;11.03;;;;;;;13.55;24.36;101345.14;2031002;87;32983;-72
2022/03/14 13:39:29;;;;;;;17.67;10.88;;;;;;;13.55;24.38;101345.63;2030888;86;29337;-76
2022/03/14 13:42:36;;;;;;;16.50;11.57;;;;;;;13.53;24.37;101348.36;2056887;86;27767;-73
2022/03/14 13:45:35;;;;;;;20.40;11.55;;;;;;;13.54;24.44;101352.81;2064213;85;28741;-62
2022/03/14 13:48:38;;;;;;;18.10;11.18;;;;;;;13.52;24.49;101350.20;2064188;84;31770;-62
2022/03/14 13:51:59;;;;;;;18.20;10.70;;;;;;;13.49;24.21;101346.75;2047606;86;33885;-72
2022/03/14 13:55:13;;;;;;;16.30;11.57;;;;;;;13.47;24.37;101356.25;2063480;85;30195;-61
2022/03/14 13:58:25;;;;;;;17.67;12.73;;;;;;;13.45;24.55;101357.27;2064903;86;27778;-61